Time;durP1;ratioP1;P1;durP2;ratioP2;P2;SDS_P1;SDS_P2;PMS_P1;PMS_P2;Temp;Humidity;BMP_temperature;BMP_pressure;BME280_temperature;BME280_humidity;BME280_pressure;Samples;Min_cycle;Max_cycle;Signal;HPM_P1;HPM_P2
2024/02/12 00:00:49;;;;;;;2.47;2.20;;;;;;;7.41;70.28;94636.56;5005426;28;20426;-69
2024/02/12 00:03:17;;;;;;;2.07;1.70;;;;;;;7.42;69.83;94640.84;5005863;28;20570;-69
2024/02/12 00:05:44;;;;;;;2.87;2.60;;;;;;;7.35;70.24;94645.59;5005720;28;20600;-69
2024/02/12 00:08:10;;;;;;;3.87;3.47;;;;;;;7.38;70.29;94644.56;5005590;28;20441;-69
2024/02/12 00:10:39;;;;;;;2.60;2.40;;;;;;;7.49;70.78;94643.91;5005525;28;21052;-68
2024/02/12 00:13:05;;;;;;;4.03;2.00;;;;;;;7.55;70.33;94654.00;5005646;28;20407;-68
2024/02/12 00:15:30;;;;;;;2.60;2.30;;;;;;;7.48;70.60;94647.47;5005935;28;20437;-68
2024/02/12 00:17:59;;;;;;;3.43;2.30;;;;;;;7.40;70.46;94642.72;5005307;28;20254;-68
2024/02/12 00:20:26;;;;;;;2.87;2.50;;;;;;;7.39;70.84;94651.44;5005428;28;20882;-68
2024/02/12 00:22:52;;;;;;;4.00;2.43;;;;;;;7.47;70.68;94643.19;5005853;28;20407;-70
2024/02/12 00:25:17;;;;;;;2.53;2.30;;;;;;;7.63;70.73;94649.16;5005541;28;21311;-69
2024/02/12 00:27:43;;;;;;;2.33;2.13;;;;;;;7.54;70.76;94653.16;5005685;28;20287;-67
2024/02/12 00:30:10;;;;;;;3.53;2.10;;;;;;;7.56;70.45;94647.84;5005179;28;20176;-69
2024/02/12 00:32:38;;;;;;;4.13;2.27;;;;;;;7.58;70.97;94659.03;5005414;28;20204;-69
2024/02/12 00:35:05;;;;;;;6.13;2.17;;;;;;;7.58;70.48;94659.88;5013762;28;20410;-69
2024/02/12 00:37:36;;;;;;;2.30;2.10;;;;;;;7.61;71.22;94661.47;5026857;28;21001;-69
2024/02/12 00:40:08;;;;;;;2.80;2.00;;;;;;;7.67;71.09;94657.63;5028101;28;20410;-70
2024/02/12 00:42:35;;;;;;;3.20;1.87;;;;;;;7.60;70.90;94651.94;5028288;28;20411;-70
2024/02/12 00:45:03;;;;;;;2.00;1.73;;;;;;;7.71;70.65;94664.38;5028726;28;20406;-69
2024/02/12 00:47:28;;;;;;;3.80;1.53;;;;;;;7.73;70.10;94660.72;5011564;28;20442;-70
2024/02/12 00:49:54;;;;;;;2.73;1.90;;;;;;;7.67;70.50;94665.47;5008597;28;20971;-69
2024/02/12 00:52:23;;;;;;;3.50;2.60;;;;;;;7.61;71.10;94658.84;5008334;28;20640;-69
2024/02/12 00:54:52;;;;;;;2.07;1.90;;;;;;;7.55;71.02;94667.06;5008658;28;20837;-68
2024/02/12 00:57:20;;;;;;;3.20;1.80;;;;;;;7.72;71.35;94668.63;5008391;28;20553;-69
2024/02/12 00:59:46;;;;;;;2.40;1.53;;;;;;;7.62;71.29;94660.53;5008710;28;21063;-70
2024/02/12 01:02:12;;;;;;;2.13;1.70;;;;;;;7.59;71.39;94660.72;5008358;28;20427;-68
2024/02/12 01:04:37;;;;;;;2.50;1.97;;;;;;;7.66;70.70;94658.59;5008564;28;20226;-68
2024/02/12 01:07:03;;;;;;;4.57;1.77;;;;;;;7.67;71.14;94661.09;5007943;28;20194;-68
2024/02/12 01:09:30;;;;;;;2.90;2.03;;;;;;;7.62;71.89;94663.97;5008667;28;20168;-68
2024/02/12 01:11:56;;;;;;;2.80;1.90;;;;;;;7.55;72.03;94661.81;5008393;28;20230;-67
2024/02/12 01:14:23;;;;;;;3.00;1.50;;;;;;;7.81;71.31;94663.69;5008094;28;20419;-67
2024/02/12 01:16:49;;;;;;;2.37;2.00;;;;;;;7.62;71.33;94663.13;5008431;28;20239;-68
2024/02/12 01:19:14;;;;;;;9.03;2.03;;;;;;;7.68;72.04;94665.38;5008974;28;20439;-69
2024/02/12 01:21:40;;;;;;;1.60;1.50;;;;;;;7.76;71.44;94664.91;5014573;28;20181;-70
2024/02/12 01:24:06;;;;;;;3.40;1.83;;;;;;;7.76;71.27;94670.13;5010754;28;20543;-69
2024/02/12 01:26:34;;;;;;;2.23;1.50;;;;;;;7.81;71.25;94668.09;5008742;28;20251;-71
2024/02/12 01:29:01;;;;;;;3.60;1.80;;;;;;;7.75;71.21;94666.69;5009079;28;20919;-69
2024/02/12 01:31:27;;;;;;;2.53;2.00;;;;;;;7.76;71.38;94662.31;5008615;28;20421;-68
2024/02/12 01:33:52;;;;;;;3.10;1.80;;;;;;;7.79;71.21;94662.13;5008726;28;20431;-68
2024/02/12 01:36:18;;;;;;;2.20;1.90;;;;;;;7.81;72.11;94663.69;5026484;28;20242;-69
2024/02/12 01:38:44;;;;;;;1.73;1.63;;;;;;;7.67;71.88;94668.91;5029056;28;20214;-69
2024/02/12 01:41:10;;;;;;;2.00;1.80;;;;;;;7.82;72.10;94668.00;5027928;28;20229;-69
2024/02/12 01:43:38;;;;;;;7.00;3.63;;;;;;;7.73;72.14;94679.00;5027507;28;20409;-68
2024/02/12 01:46:05;;;;;;;2.40;1.80;;;;;;;7.77;72.62;94677.03;5021729;28;20168;-69
2024/02/12 01:48:32;;;;;;;1.83;1.60;;;;;;;7.69;72.81;94674.06;5006861;28;20415;-69
2024/02/12 01:51:06;;;;;;;1.53;1.30;;;;;;;7.58;72.78;94674.69;5007236;28;20422;-70
2024/02/12 01:53:34;;;;;;;2.83;1.87;;;;;;;7.69;73.33;94680.13;5007564;28;20877;-69
2024/02/12 01:56:01;;;;;;;2.27;1.90;;;;;;;7.64;72.98;94676.94;5007325;28;20433;-69
2024/02/12 01:58:29;;;;;;;1.90;1.67;;;;;;;7.73;72.22;94676.38;5007563;28;20476;-68
2024/02/12 02:00:54;;;;;;;2.53;1.70;;;;;;;7.61;72.97;94669.31;5007679;28;20982;-68
2024/02/12 02:03:21;;;;;;;3.00;1.80;;;;;;;7.58;74.15;94669.47;5007387;28;20574;-68
2024/02/12 02:05:47;;;;;;;2.43;1.63;;;;;;;7.49;74.51;94668.25;5006354;28;20291;-68
2024/02/12 02:08:13;;;;;;;2.80;1.63;;;;;;;7.51;74.32;94670.75;5008374;28;20851;-67
2024/02/12 02:10:38;;;;;;;9.73;1.83;;;;;;;7.44;75.11;94672.91;5007284;28;20542;-69
2024/02/12 02:13:06;;;;;;;2.23;1.90;;;;;;;7.41;75.41;94667.88;5007187;28;20264;-70
2024/02/12 02:15:35;;;;;;;2.27;2.00;;;;;;;7.39;75.80;94672.34;5007328;28;20239;-70
2024/02/12 02:18:03;;;;;;;2.33;1.87;;;;;;;7.43;75.21;94672.06;5006833;28;20550;-70
2024/02/12 02:20:30;;;;;;;2.23;2.03;;;;;;;7.36;75.25;94675.97;5007133;28;20772;-69
2024/02/12 02:22:55;;;;;;;3.30;2.10;;;;;;;7.40;74.96;94679.25;5006824;28;20418;-70
2024/02/12 02:25:22;;;;;;;2.80;1.73;;;;;;;7.38;74.99;94670.66;5006901;28;20411;-69
2024/02/12 02:27:47;;;;;;;2.17;1.87;;;;;;;7.35;75.34;94676.91;5006979;28;20646;-69
2024/02/12 02:30:13;;;;;;;2.33;2.13;;;;;;;7.39;75.19;94682.78;5007140;28;20419;-68
2024/02/12 02:32:40;;;;;;;2.23;1.83;;;;;;;7.46;75.16;94676.25;5006549;28;20171;-69
2024/02/12 02:35:07;;;;;;;2.63;2.43;;;;;;;7.49;74.83;94680.44;5015375;28;20186;-69
2024/02/12 02:37:34;;;;;;;2.30;1.90;;;;;;;7.39;75.21;94673.19;5026250;28;21105;-71
2024/02/12 02:39:59;;;;;;;4.73;2.27;;;;;;;7.50;74.29;94671.72;5026350;28;20442;-69
2024/02/12 02:42:25;;;;;;;2.40;2.20;;;;;;;7.49;74.92;94675.22;5026669;28;20410;-69
2024/02/12 02:44:52;;;;;;;2.90;1.77;;;;;;;7.44;74.39;94670.31;5026547;28;20180;-69
2024/02/12 02:47:19;;;;;;;2.53;1.70;;;;;;;7.52;74.54;94670.69;5010100;28;20250;-69
2024/02/12 02:49:46;;;;;;;2.70;1.73;;;;;;;7.46;74.51;94676.25;5006086;28;20419;-68
2024/02/12 02:52:12;;;;;;;2.10;1.90;;;;;;;7.54;74.05;94676.66;5006099;28;20411;-70
2024/02/12 02:54:38;;;;;;;3.20;2.00;;;;;;;7.42;74.27;94670.41;5006136;28;20411;-69
2024/02/12 02:57:03;;;;;;;2.40;2.10;;;;;;;7.48;74.52;94678.78;5006588;28;20454;-69
2024/02/12 02:59:30;;;;;;;2.07;1.73;;;;;;;7.65;74.22;94676.00;5006198;28;20183;-69
2024/02/12 03:01:56;;;;;;;2.00;1.80;;;;;;;7.60;73.50;94680.66;5006179;28;20172;-69
2024/02/12 03:04:21;;;;;;;3.03;1.70;;;;;;;7.59;72.96;94682.44;5006391;28;20510;-69
2024/02/12 03:06:47;;;;;;;2.80;1.70;;;;;;;7.65;72.94;94681.22;5006016;28;20701;-69
2024/02/12 03:09:13;;;;;;;7.27;1.90;;;;;;;7.70;72.62;94680.94;5006296;28;20180;-69
2024/02/12 03:11:39;;;;;;;1.67;1.57;;;;;;;7.62;73.13;94679.63;5006223;28;20180;-69
2024/02/12 03:14:08;;;;;;;2.30;1.50;;;;;;;7.60;73.49;94673.66;5006337;28;20490;-69
2024/02/12 03:16:34;;;;;;;2.07;1.60;;;;;;;7.56;73.27;94674.78;5006095;28;20427;-69
2024/02/12 03:19:01;;;;;;;2.00;1.63;;;;;;;7.63;73.39;94677.88;5006272;28;20439;-69
2024/02/12 03:21:27;;;;;;;1.77;1.57;;;;;;;7.65;72.98;94686.44;5006057;28;20449;-69
2024/02/12 03:23:53;;;;;;;2.00;1.70;;;;;;;7.61;73.46;94687.56;5005974;28;20415;-69
2024/02/12 03:26:19;;;;;;;2.40;1.80;;;;;;;7.55;73.93;94690.53;5005762;28;20196;-69
2024/02/12 03:28:44;;;;;;;1.93;1.77;;;;;;;7.52;73.44;94690.72;5005950;28;21012;-69
2024/02/12 03:31:11;;;;;;;2.27;1.80;;;;;;;7.58;73.88;94688.59;5005701;28;20194;-70
2024/02/12 03:33:36;;;;;;;2.63;1.50;;;;;;;7.39;74.36;94699.28;5006074;28;20422;-68
2024/02/12 03:36:02;;;;;;;3.53;1.80;;;;;;;7.46;74.01;94701.53;5021943;28;20426;-68
2024/02/12 03:38:28;;;;;;;1.47;1.20;;;;;;;7.50;73.63;94692.59;5025458;28;20201;-69
2024/02/12 03:40:54;;;;;;;2.00;1.77;;;;;;;7.62;73.25;94697.06;5025613;28;20969;-69
2024/02/12 03:43:24;;;;;;;1.77;1.60;;;;;;;7.53;73.83;94702.84;5024126;28;20183;-69
2024/02/12 03:45:56;;;;;;;1.90;1.70;;;;;;;7.52;73.79;94709.84;5021785;28;20178;-69
2024/02/12 04:02:04;;;;;;;2.10;1.90;;;;;;;7.35;74.48;94723.03;5006269;28;20422;-70
2024/02/12 04:04:30;;;;;;;2.53;1.60;;;;;;;7.48;74.01;94723.16;5006185;28;20486;-69
2024/02/12 04:06:57;;;;;;;2.70;1.47;;;;;;;7.55;72.99;94730.53;5005698;28;20215;-69
2024/02/12 04:09:22;;;;;;;1.90;1.70;;;;;;;7.54;73.14;94735.84;5005756;28;20169;-69
2024/02/12 04:11:49;;;;;;;2.03;1.53;;;;;;;7.52;73.76;94728.09;5006903;28;20507;-69
2024/02/12 04:14:15;;;;;;;3.57;1.80;;;;;;;7.57;72.96;94738.28;5009306;28;20172;-69
2024/02/12 04:16:41;;;;;;;1.77;1.43;;;;;;;7.45;73.86;94733.78;5009165;28;20489;-69
2024/02/12 04:19:07;;;;;;;2.07;1.73;;;;;;;7.56;73.49;94740.06;5009192;28;20843;-68
2024/02/12 04:21:33;;;;;;;1.50;1.40;;;;;;;7.46;73.63;94744.13;5009203;28;20956;-68
2024/02/12 04:24:04;;;;;;;3.33;1.40;;;;;;;7.48;73.46;94741.44;5009610;28;20407;-69
2024/02/12 04:26:30;;;;;;;1.77;1.63;;;;;;;7.53;73.20;94736.78;5009558;28;20200;-70
2024/02/12 04:29:00;;;;;;;2.83;1.73;;;;;;;7.40;74.17;94745.31;5009088;28;20956;-69
2024/02/12 04:31:27;;;;;;;2.10;1.70;;;;;;;7.39;73.92;94746.25;5008835;28;20922;-71
2024/02/12 04:33:53;;;;;;;1.83;1.53;;;;;;;7.47;73.71;94747.59;5007715;28;20502;-69
2024/02/12 04:36:23;;;;;;;1.63;1.53;;;;;;;7.58;72.90;94753.00;5027278;28;20859;-68
2024/02/12 04:38:48;;;;;;;2.23;1.90;;;;;;;7.47;73.82;94755.41;5028955;28;20222;-68
2024/02/12 04:41:14;;;;;;;1.90;1.60;;;;;;;7.56;73.45;94760.06;5028685;28;20838;-69
2024/02/12 04:43:40;;;;;;;2.07;1.50;;;;;;;7.60;72.59;94770.25;5028824;28;20175;-69
2024/02/12 04:46:05;;;;;;;2.27;2.07;;;;;;;7.56;73.12;94775.75;5022926;28;20187;-67
2024/02/12 04:48:31;;;;;;;2.03;1.77;;;;;;;7.52;73.83;94774.25;5009022;28;21298;-69
2024/02/12 04:50:56;;;;;;;3.40;1.70;;;;;;;7.57;73.09;94775.66;5008530;28;20203;-68
2024/02/12 04:53:22;;;;;;;3.07;2.10;;;;;;;7.59;73.50;94775.56;5009019;28;20411;-68
2024/02/12 04:55:47;;;;;;;1.90;1.73;;;;;;;7.59;72.79;94776.41;5009337;28;20267;-69
2024/02/12 04:58:13;;;;;;;3.67;2.17;;;;;;;7.54;73.20;94780.22;5009249;28;20208;-68
2024/02/12 05:00:38;;;;;;;2.10;1.67;;;;;;;7.58;73.65;94773.88;5008329;28;20230;-67
2024/02/12 05:03:07;;;;;;;3.67;2.30;;;;;;;7.49;73.23;94790.06;5008482;28;20172;-69
2024/02/12 05:05:33;;;;;;;2.10;1.90;;;;;;;7.47;74.03;94784.13;5008736;28;20176;-67
2024/02/12 05:08:03;;;;;;;2.20;1.80;;;;;;;7.49;74.17;94790.94;5008616;28;21009;-68
2024/02/12 05:10:29;;;;;;;8.83;2.60;;;;;;;7.47;74.25;94786.75;5008588;28;20759;-68
2024/02/12 05:12:55;;;;;;;4.20;2.00;;;;;;;7.47;73.82;94797.19;5008875;28;20419;-68
2024/02/12 05:15:20;;;;;;;2.50;2.00;;;;;;;7.57;74.19;94790.50;5008393;28;20772;-71
2024/02/12 05:18:02;;;;;;;2.20;2.00;;;;;;;7.50;73.99;94786.56;5008441;28;20208;-69
2024/02/12 05:23:12;;;;;;;2.50;2.27;;;;;;;7.62;73.23;94785.84;5008338;28;21034;-68
2024/02/12 05:25:38;;;;;;;2.17;1.97;;;;;;;7.57;73.18;94793.94;5008370;28;20408;-68
2024/02/12 05:28:03;;;;;;;3.00;2.47;;;;;;;7.43;74.18;94796.50;5007858;28;20196;-68
2024/02/12 05:30:31;;;;;;;2.07;1.70;;;;;;;7.47;73.71;94798.00;5007825;28;20411;-69
2024/02/12 05:32:58;;;;;;;1.67;1.57;;;;;;;7.52;74.03;94795.13;5007421;28;20188;-70
2024/02/12 05:35:23;;;;;;;2.47;2.27;;;;;;;7.50;73.31;94802.22;5006397;28;21217;-69
2024/02/12 05:37:49;;;;;;;1.97;1.80;;;;;;;7.49;73.74;94800.50;5017129;28;20473;-68
2024/02/12 05:40:14;;;;;;;7.63;1.80;;;;;;;7.44;74.08;94803.41;5018529;28;20188;-68
2024/02/12 05:42:40;;;;;;;2.10;1.90;;;;;;;7.40;74.49;94802.72;5026788;28;20232;-70
2024/02/12 05:45:08;;;;;;;2.43;1.90;;;;;;;7.41;73.74;94801.78;5025725;28;20692;-68
2024/02/12 05:47:34;;;;;;;4.10;2.17;;;;;;;7.46;73.84;94813.75;5007725;28;20359;-69
2024/02/12 05:49:59;;;;;;;2.93;1.90;;;;;;;7.40;74.12;94812.34;5005925;28;20407;-68
2024/02/12 05:52:24;;;;;;;2.60;2.20;;;;;;;7.35;74.54;94812.59;5005546;28;20271;-68
2024/02/12 05:54:50;;;;;;;3.20;2.20;;;;;;;7.48;73.92;94814.50;5005681;28;20577;-69
2024/02/12 05:57:15;;;;;;;1.63;1.53;;;;;;;7.34;74.33;94821.34;5005639;28;20219;-69
2024/02/12 05:59:41;;;;;;;2.10;1.90;;;;;;;7.40;75.41;94822.78;5005583;28;20230;-70
2024/02/12 06:02:06;;;;;;;3.60;2.40;;;;;;;7.47;75.13;94825.88;5004964;28;20180;-67
2024/02/12 06:04:32;;;;;;;3.73;2.97;;;;;;;7.50;75.00;94833.53;5005272;28;20694;-66
2024/02/12 06:06:58;;;;;;;2.10;1.90;;;;;;;7.53;74.66;94833.34;5005697;28;20188;-69
2024/02/12 06:09:25;;;;;;;4.83;1.60;;;;;;;7.44;75.13;94839.94;5005529;28;20610;-69
2024/02/12 06:11:50;;;;;;;2.83;2.20;;;;;;;7.41;75.03;94835.72;5005070;28;20407;-68
2024/02/12 06:14:16;;;;;;;5.03;1.97;;;;;;;7.46;75.06;94850.28;5005215;28;20414;-69
2024/02/12 06:16:42;;;;;;;2.60;1.70;;;;;;;7.45;75.56;94854.66;5005354;28;20845;-69
2024/02/12 06:19:07;;;;;;;4.17;1.93;;;;;;;7.50;75.38;94839.59;5005214;28;20422;-69
2024/02/12 06:21:35;;;;;;;1.50;1.40;;;;;;;7.50;75.17;94849.19;5004856;28;20172;-67
2024/02/12 06:24:02;;;;;;;3.33;2.00;;;;;;;7.42;75.82;94857.47;5004892;28;20176;-69
2024/02/12 06:26:27;;;;;;;1.97;1.80;;;;;;;7.47;74.94;94849.38;5005507;28;20458;-71
2024/02/12 06:28:53;;;;;;;3.60;2.00;;;;;;;7.52;75.27;94860.41;5022308;28;20508;-69
2024/02/12 06:31:18;;;;;;;1.93;1.67;;;;;;;7.55;75.37;94868.88;5016359;28;20179;-68
2024/02/12 06:33:44;;;;;;;3.23;1.77;;;;;;;7.43;75.39;94869.56;5017434;28;20219;-70
2024/02/12 06:36:09;;;;;;;6.37;2.57;;;;;;;7.43;76.29;94874.78;5009609;28;20196;-69
2024/02/12 06:38:35;;;;;;;4.90;2.17;;;;;;;7.50;75.25;94885.72;5008308;28;20685;-68
2024/02/12 06:41:00;;;;;;;3.80;2.50;;;;;;;7.52;75.74;94889.09;5009889;28;20195;-70
2024/02/12 06:43:26;;;;;;;5.60;2.90;;;;;;;7.53;75.14;94890.78;5013559;28;21173;-70
2024/02/12 06:45:52;;;;;;;2.67;2.00;;;;;;;7.56;75.45;94893.19;5023853;28;20184;-70
2024/02/12 06:48:17;;;;;;;3.70;2.50;;;;;;;7.51;74.96;94890.00;5018327;28;20219;-69
2024/02/12 06:50:43;;;;;;;3.63;3.30;;;;;;;7.53;75.56;94885.56;5015996;28;20184;-69
2024/02/12 06:53:08;;;;;;;3.37;2.33;;;;;;;7.50;75.26;94893.56;5012209;28;20933;-69
2024/02/12 06:55:34;;;;;;;3.53;1.90;;;;;;;7.40;75.09;94894.06;5005235;28;20211;-69
2024/02/12 06:57:59;;;;;;;5.30;2.63;;;;;;;7.47;74.68;94899.81;5007795;28;20212;-67
2024/02/12 07:00:25;;;;;;;2.33;1.73;;;;;;;7.43;74.29;94900.88;5023947;28;20601;-70
2024/02/12 07:02:50;;;;;;;2.90;1.60;;;;;;;7.52;74.12;94905.59;5021153;28;20202;-70
2024/02/12 07:05:17;;;;;;;4.07;1.83;;;;;;;7.51;74.29;94908.28;5025565;28;20192;-69
2024/02/12 07:07:43;;;;;;;4.00;1.80;;;;;;;7.54;73.73;94922.03;5015541;28;20203;-69
2024/02/12 07:10:09;;;;;;;3.93;2.37;;;;;;;7.50;73.04;94919.66;5025534;28;20410;-69
2024/02/12 07:12:36;;;;;;;2.00;1.77;;;;;;;7.53;74.03;94927.31;5018557;28;20502;-69
2024/02/12 07:15:02;;;;;;;2.33;2.00;;;;;;;7.54;73.49;94923.81;5006337;28;20168;-67
2024/02/12 07:17:28;;;;;;;2.60;2.23;;;;;;;7.55;72.96;94921.09;5007563;28;20478;-67
2024/02/12 07:19:53;;;;;;;5.60;1.87;;;;;;;7.56;72.47;94924.53;5017970;28;20434;-69
2024/02/12 07:22:21;;;;;;;2.43;1.40;;;;;;;7.58;72.30;94922.69;5019711;28;20183;-68
2024/02/12 07:24:49;;;;;;;2.60;2.00;;;;;;;7.58;72.17;94931.38;5021184;28;20169;-74
2024/02/12 07:27:21;;;;;;;6.70;2.20;;;;;;;7.59;72.21;94927.00;5017655;28;20448;-69
2024/02/12 07:29:47;;;;;;;4.00;2.00;;;;;;;7.72;72.42;94932.34;5024727;28;20418;-66
2024/02/12 07:32:13;;;;;;;5.40;1.60;;;;;;;7.85;71.67;94934.19;5025256;28;21369;-68
2024/02/12 07:34:39;;;;;;;3.47;1.93;;;;;;;7.98;71.31;94923.88;5026176;28;20501;-69
2024/02/12 07:37:05;;;;;;;5.77;1.60;;;;;;;8.00;70.24;94932.47;5024960;28;20488;-69
2024/02/12 07:39:30;;;;;;;2.50;1.80;;;;;;;8.13;70.21;94932.63;5023330;28;20442;-67
2024/02/12 07:41:59;;;;;;;2.43;1.70;;;;;;;9.63;66.69;94937.53;5024525;28;20194;-68
2024/02/12 07:44:27;;;;;;;13.20;3.27;;;;;;;12.06;59.05;94924.50;5025966;28;20557;-70
2024/02/12 07:46:53;;;;;;;23.17;4.77;;;;;;;13.51;52.78;94930.16;5021120;28;21176;-69
2024/02/12 07:49:19;;;;;;;5.90;2.20;;;;;;;13.32;52.32;94926.38;5024513;28;20442;-68
2024/02/12 07:51:45;;;;;;;3.40;1.40;;;;;;;12.35;54.63;94930.22;5024806;28;20637;-68
2024/02/12 07:54:10;;;;;;;2.80;1.60;;;;;;;11.18;58.35;94938.59;5029669;28;20607;-70
2024/02/12 07:56:36;;;;;;;2.17;1.57;;;;;;;10.32;61.07;94947.06;5029700;28;20227;-69
2024/02/12 07:59:01;;;;;;;2.60;1.47;;;;;;;9.87;62.24;94956.09;5030409;28;20179;-68
2024/02/12 08:01:27;;;;;;;2.17;1.67;;;;;;;9.96;62.51;94963.34;5029482;28;20199;-68
2024/02/12 08:03:52;;;;;;;3.60;1.50;;;;;;;9.83;63.02;94954.63;5019956;28;20263;-69
2024/02/12 08:06:18;;;;;;;2.33;1.77;;;;;;;9.64;63.77;94961.03;5023067;28;20234;-69
2024/02/12 08:08:43;;;;;;;3.23;1.83;;;;;;;9.45;63.36;94961.34;5031733;28;20174;-68
2024/02/12 08:11:09;;;;;;;3.83;1.73;;;;;;;9.27;63.94;94962.47;5030828;28;20172;-69
2024/02/12 08:13:35;;;;;;;1.40;1.30;;;;;;;9.48;63.68;94969.00;5031032;28;20172;-69
2024/02/12 08:16:01;;;;;;;1.90;1.40;;;;;;;9.42;63.97;94968.53;5021840;28;20249;-69
2024/02/12 08:18:28;;;;;;;2.10;1.47;;;;;;;9.53;64.07;94976.56;5020325;28;20466;-69
2024/02/12 08:20:54;;;;;;;4.93;1.60;;;;;;;9.95;62.35;94974.78;5025334;28;20474;-68
2024/02/12 08:23:20;;;;;;;3.20;1.50;;;;;;;10.03;62.50;94980.38;5027416;28;20468;-68
2024/02/12 08:25:46;;;;;;;3.30;1.27;;;;;;;10.00;62.14;94977.13;5023298;28;20175;-69
2024/02/12 08:28:12;;;;;;;2.33;1.67;;;;;;;9.90;62.70;94982.94;5029401;28;20445;-67
2024/02/12 08:30:37;;;;;;;1.53;1.33;;;;;;;9.73;62.66;94985.78;5028252;28;20179;-69
2024/02/12 08:33:03;;;;;;;2.30;1.63;;;;;;;9.79;62.69;94984.56;5029080;28;20175;-68
2024/02/12 08:35:28;;;;;;;2.23;1.50;;;;;;;9.73;62.87;94989.25;5027860;28;20520;-69
2024/02/12 08:37:55;;;;;;;4.23;2.07;;;;;;;9.92;62.38;94995.94;5024070;28;20214;-69
2024/02/12 08:40:20;;;;;;;5.17;1.83;;;;;;;9.88;62.21;95000.53;5027455;28;20267;-69
2024/02/12 08:42:46;;;;;;;1.70;1.50;;;;;;;9.62;63.30;95006.59;5027537;28;20422;-69
2024/02/12 08:45:12;;;;;;;1.40;1.30;;;;;;;9.49;64.19;95004.72;5027665;28;20187;-69
2024/02/12 08:47:38;;;;;;;3.93;1.27;;;;;;;9.46;64.24;95002.28;5019987;28;20210;-69
2024/02/12 08:50:10;;;;;;;3.57;1.93;;;;;;;9.40;64.33;95005.31;5027461;28;20422;-69
2024/02/12 08:52:35;;;;;;;14.53;3.37;;;;;;;9.29;64.92;95011.19;5027789;28;20913;-69
2024/02/12 08:55:08;;;;;;;2.27;1.40;;;;;;;9.39;65.00;95008.00;5027547;28;20427;-69
2024/02/12 08:57:34;;;;;;;1.60;1.20;;;;;;;10.11;63.11;95000.84;5016613;28;20207;-68
2024/02/12 09:00:00;;;;;;;1.90;1.30;;;;;;;11.13;59.45;95010.75;5007939;28;20767;-68
2024/02/12 09:02:27;;;;;;;3.50;1.77;;;;;;;11.56;58.17;95010.41;5007857;28;20181;-70
2024/02/12 09:04:52;;;;;;;5.40;4.20;;;;;;;12.82;55.57;94996.03;5007819;28;20176;-70
2024/02/12 09:07:20;;;;;;;3.30;1.90;;;;;;;13.48;53.41;94991.84;5007221;28;21257;-70
2024/02/12 09:09:46;;;;;;;4.33;1.63;;;;;;;14.01;51.79;94993.88;5006906;28;20287;-70
2024/02/12 09:12:12;;;;;;;8.67;2.03;;;;;;;14.14;51.88;94999.00;5007454;28;20443;-69
2024/02/12 09:14:37;;;;;;;5.93;3.33;;;;;;;13.28;53.72;95000.50;5015846;28;20427;-68
2024/02/12 09:17:03;;;;;;;6.43;2.23;;;;;;;12.95;54.23;95002.06;5031201;28;20694;-69
2024/02/12 09:19:29;;;;;;;3.43;1.77;;;;;;;12.39;55.76;95009.75;5041592;28;20647;-69
2024/02/12 09:21:55;;;;;;;3.60;1.60;;;;;;;13.14;54.45;95015.50;5037489;28;20246;-69
2024/02/12 09:24:22;;;;;;;4.53;2.00;;;;;;;13.74;52.68;95013.53;5031894;28;20514;-69
2024/02/12 09:26:48;;;;;;;4.67;2.10;;;;;;;14.00;51.94;95005.38;5026990;28;20199;-70
2024/02/12 09:29:13;;;;;;;2.87;1.90;;;;;;;14.14;51.75;95006.91;5027065;28;20425;-69
2024/02/12 09:31:39;;;;;;;4.50;2.10;;;;;;;13.33;53.32;95008.88;5030554;28;20248;-69
2024/02/12 09:34:06;;;;;;;2.87;1.73;;;;;;;13.06;54.68;95015.28;5020828;28;20187;-69
2024/02/12 09:36:32;;;;;;;4.50;2.50;;;;;;;13.19;54.69;95023.06;5026390;28;20253;-69
2024/02/12 09:38:58;;;;;;;3.37;2.10;;;;;;;12.64;55.84;95022.78;5026375;28;20458;-69
2024/02/12 09:41:28;;;;;;;3.67;2.20;;;;;;;11.99;57.24;95036.31;5008706;28;21071;-70
2024/02/12 09:43:55;;;;;;;2.63;2.07;;;;;;;11.70;57.14;95033.09;5006136;28;20199;-69
2024/02/12 09:46:21;;;;;;;4.97;2.00;;;;;;;11.64;57.79;95043.06;5006563;28;20435;-68
2024/02/12 09:48:52;;;;;;;7.93;2.80;;;;;;;11.50;59.24;95045.81;5026231;28;20414;-70
2024/02/12 09:51:17;;;;;;;15.43;2.80;;;;;;;11.52;59.73;95051.81;5026265;28;20557;-69
2024/02/12 09:53:44;;;;;;;2.90;2.13;;;;;;;11.56;59.13;95047.19;5026489;28;21241;-70
2024/02/12 09:56:14;;;;;;;6.03;2.90;;;;;;;11.43;59.13;95045.41;5026570;28;20182;-70
2024/02/12 09:58:39;;;;;;;4.00;2.50;;;;;;;11.14;60.30;95049.19;5026589;28;20453;-70
2024/02/12 10:01:05;;;;;;;3.20;2.07;;;;;;;11.17;60.23;95051.59;5026664;28;20419;-70
2024/02/12 10:03:32;;;;;;;6.80;2.30;;;;;;;11.11;60.57;95055.47;5028381;28;20203;-71
2024/02/12 10:05:58;;;;;;;3.80;2.23;;;;;;;11.14;60.14;95059.69;5030224;28;20651;-68
2024/02/12 10:08:24;;;;;;;4.17;2.00;;;;;;;11.04;60.44;95059.47;5025005;28;20423;-70
2024/02/12 10:10:52;;;;;;;6.03;3.80;;;;;;;11.02;60.26;95062.19;5028382;28;20233;-67
2024/02/12 10:13:19;;;;;;;3.70;2.40;;;;;;;11.04;60.38;95056.84;5028211;28;20418;-69
2024/02/12 10:15:45;;;;;;;2.80;2.30;;;;;;;10.90;59.85;95057.75;5020102;28;20517;-67
2024/02/12 10:18:15;;;;;;;3.53;2.37;;;;;;;10.79;60.30;95055.88;5028098;28;20462;-69
2024/02/12 10:20:44;;;;;;;6.13;2.23;;;;;;;10.77;60.26;95054.25;5028230;28;20422;-68
2024/02/12 10:23:15;;;;;;;4.53;2.20;;;;;;;10.69;59.60;95061.81;5013078;28;20407;-68
2024/02/12 10:25:43;;;;;;;2.23;1.83;;;;;;;10.64;59.96;95054.25;5009884;28;21151;-67
2024/02/12 10:28:09;;;;;;;5.20;2.93;;;;;;;10.73;59.79;95061.50;5008109;28;20469;-69
2024/02/12 10:30:35;;;;;;;10.50;3.50;;;;;;;10.79;60.25;95066.38;5007845;28;20427;-67
2024/02/12 10:33:05;;;;;;;7.73;2.57;;;;;;;10.77;59.75;95068.25;5006983;28;20961;-69
2024/02/12 10:35:31;;;;;;;4.37;2.30;;;;;;;10.75;60.09;95067.50;5018847;28;20199;-70
2024/02/12 10:37:57;;;;;;;4.80;2.00;;;;;;;10.60;60.01;95068.50;5027837;28;20577;-68
2024/02/12 10:40:29;;;;;;;3.43;2.10;;;;;;;10.68;59.48;95066.22;5028087;28;21142;-70
2024/02/12 10:42:58;;;;;;;12.53;2.50;;;;;;;10.60;59.68;95071.13;5026825;28;20183;-70
2024/02/12 10:45:24;;;;;;;16.83;3.77;;;;;;;10.67;59.79;95064.53;5026945;28;20430;-70
2024/02/12 10:47:49;;;;;;;22.13;4.23;;;;;;;10.44;59.83;95068.66;5020341;28;20442;-69
2024/02/12 10:50:17;;;;;;;7.90;2.43;;;;;;;10.49;59.72;95069.19;5027105;28;20219;-67
2024/02/12 10:52:44;;;;;;;5.00;2.23;;;;;;;10.48;59.17;95070.13;5027898;28;20428;-67
2024/02/12 10:55:10;;;;;;;3.37;1.90;;;;;;;10.64;59.38;95063.91;5027961;28;20476;-65
2024/02/12 10:57:42;;;;;;;3.53;2.50;;;;;;;10.48;60.11;95064.03;5027926;28;20464;-68
2024/02/12 11:00:16;;;;;;;4.93;2.50;;;;;;;10.52;60.15;95062.91;5028014;28;20828;-68
2024/02/12 11:02:43;;;;;;;8.57;2.30;;;;;;;10.58;59.89;95059.88;5024796;28;20444;-70
2024/02/12 11:05:16;;;;;;;5.63;2.50;;;;;;;10.59;60.26;95059.78;5024241;28;20414;-70
2024/02/12 11:07:43;;;;;;;5.73;1.87;;;;;;;10.59;60.15;95064.19;5026429;28;20449;-68
2024/02/12 11:10:09;;;;;;;4.63;2.70;;;;;;;10.50;60.67;95064.78;5026186;28;20426;-68
2024/02/12 11:12:45;;;;;;;4.47;2.87;;;;;;;10.57;60.49;95064.28;5017536;28;20517;-68
2024/02/12 11:15:19;;;;;;;5.77;2.77;;;;;;;10.63;59.98;95064.81;5025872;28;20230;-68
2024/02/12 11:17:44;;;;;;;6.33;2.43;;;;;;;10.51;59.99;95066.47;5026476;28;20492;-69
2024/02/12 11:20:17;;;;;;;3.10;2.50;;;;;;;10.51;60.35;95069.09;5026199;28;20426;-69
2024/02/12 11:22:45;;;;;;;4.03;2.37;;;;;;;10.49;60.35;95066.59;5025606;28;20229;-68
2024/02/12 11:25:15;;;;;;;6.80;2.70;;;;;;;10.59;60.46;95069.44;5025733;28;20441;-69
2024/02/12 11:27:58;;;;;;;8.03;3.30;;;;;;;10.47;60.44;95070.25;5025571;28;20473;-69
2024/02/12 11:30:24;;;;;;;5.20;2.53;;;;;;;10.30;61.16;95084.41;5025105;28;20532;-68
2024/02/12 11:32:50;;;;;;;4.33;2.50;;;;;;;10.02;62.37;95074.84;5020225;28;20473;-68
2024/02/12 11:35:18;;;;;;;6.57;2.80;;;;;;;10.09;63.01;95081.38;5013717;28;20798;-68
2024/02/12 11:37:55;;;;;;;4.10;2.63;;;;;;;9.82;64.64;95092.63;5009091;28;20206;-68
2024/02/12 11:40:21;;;;;;;6.63;4.03;;;;;;;9.70;65.56;95091.59;5025426;28;20426;-67
2024/02/12 11:42:50;;;;;;;4.83;3.43;;;;;;;9.67;66.25;95090.97;5025466;28;20422;-68
2024/02/12 11:45:23;;;;;;;5.83;2.77;;;;;;;9.69;65.81;95082.06;5020041;28;20274;-69
2024/02/12 11:47:50;;;;;;;4.03;2.60;;;;;;;9.60;66.10;95095.72;5018527;28;20434;-70
2024/02/12 11:50:25;;;;;;;5.43;3.00;;;;;;;9.79;65.80;95090.19;5024626;28;20821;-68
2024/02/12 11:52:55;;;;;;;2.80;2.13;;;;;;;10.15;63.71;95088.84;5025709;28;20422;-68